CheckWX is a tool to help pilots better visualize weather data.  It is not intended as a substitute for an official pre-flight weather briefing.

18:01:09 UTC

KRWL METAR
Rawlins Municipal / Harvey Field Airport
Rawlins, Wyoming, USA
Current

1 hour ago

KRWL 171653Z AUTO 23014KT 10SM CLR M08/M13 A2979 RMK AO2 SLP141 T10781128
Observed
Feb-17 @ 16:53 UTC
Wind
  • 230° at 14 KTS
Visibility
10 SM
Flight Rules
VFR
Cloud Levels
  • Clear skies
Temperature
-8°C / 18°F
Dewpoint
-13°C / 9°F
Humidity
68%
Altimeter
29.79" Hg
Pressure
1014.1 hPa
Previous

2 hours ago

KRWL 171553Z AUTO 24013KT 10SM CLR M09/M14 A2978 RMK AO2 SLP138 T10891139
Observed
Feb-17 @ 15:53 UTC
Wind
  • 240° at 13 KTS
Visibility
10 SM
Flight Rules
VFR
Cloud Levels
  • Clear skies
Temperature
-9°C / 16°F
Dewpoint
-14°C / 7°F
Humidity
67%
Altimeter
29.78" Hg
Pressure
1013.8 hPa
Previous

3 hours ago

KRWL 171453Z AUTO 25012KT 10SM CLR M10/M14 A2977 RMK AO2 SLP137 T11001144 53007
Observed
Feb-17 @ 14:53 UTC
Wind
  • 250° at 12 KTS
Visibility
10 SM
Flight Rules
VFR
Cloud Levels
  • Clear skies
Temperature
-10°C / 14°F
Dewpoint
-14°C / 7°F
Humidity
73%
Altimeter
29.77" Hg
Pressure
1013.7 hPa